createdAt,value
2022-08-29T00:00:47.801Z,98838.29
2022-08-29T00:03:55.568Z,98835.70
2022-08-29T00:07:01.711Z,98835.34
2022-08-29T00:10:10.734Z,98833.61
2022-08-29T00:13:17.531Z,98834.80
2022-08-29T00:16:23.953Z,98834.50
2022-08-29T00:19:30.813Z,98835.14
2022-08-29T00:22:37.096Z,98837.95
2022-08-29T00:25:43.334Z,98841.66
2022-08-29T00:28:49.231Z,98839.92
2022-08-29T00:31:53.644Z,98843.79
2022-08-29T00:34:59.569Z,98841.60
2022-08-29T00:38:05.457Z,98837.71
2022-08-29T00:41:11.578Z,98838.26
2022-08-29T00:44:18.090Z,98841.20
2022-08-29T00:47:37.783Z,98843.61
2022-08-29T00:50:48.596Z,98846.45
2022-08-29T00:54:00.797Z,98846.75
2022-08-29T00:57:07.894Z,98843.88
2022-08-29T01:00:17.734Z,98851.55
2022-08-29T01:03:24.382Z,98849.80
2022-08-29T01:06:30.942Z,98853.22
2022-08-29T01:09:39.538Z,98851.30
2022-08-29T01:12:46.053Z,98856.33
2022-08-29T01:15:52.907Z,98859.57
2022-08-29T01:19:04.454Z,98856.33
2022-08-29T01:22:22.362Z,98855.29
2022-08-29T01:25:32.421Z,98854.90
2022-08-29T01:28:42.526Z,98852.85
2022-08-29T01:31:57.430Z,98847.39
2022-08-29T01:35:02.744Z,98846.46
2022-08-29T01:38:08.866Z,98848.08
2022-08-29T01:41:18.141Z,98845.41
2022-08-29T01:44:26.724Z,98846.54
2022-08-29T01:47:35.658Z,98851.48
2022-08-29T01:50:41.799Z,98850.38
2022-08-29T01:53:48.270Z,98855.96
2022-08-29T01:56:55.470Z,98856.02
2022-08-29T02:00:03.008Z,98857.52
2022-08-29T02:03:09.242Z,98859.02
2022-08-29T02:06:15.405Z,98858.02
2022-08-29T02:09:21.503Z,98862.36
2022-08-29T02:12:27.723Z,98862.35
2022-08-29T02:15:34.151Z,98861.65
2022-08-29T02:18:40.712Z,98864.66
2022-08-29T02:21:46.890Z,98865.27
2022-08-29T02:24:53.105Z,98861.81
2022-08-29T02:27:59.546Z,98861.85
2022-08-29T02:31:06.595Z,98860.89
2022-08-29T02:34:13.207Z,98858.95
2022-08-29T02:37:19.681Z,98865.01
2022-08-29T02:40:32.044Z,98867.24
2022-08-29T02:43:38.402Z,98864.80
2022-08-29T02:46:44.648Z,98866.42
2022-08-29T02:49:50.792Z,98864.34
2022-08-29T02:52:57.255Z,98861.38
2022-08-29T02:56:03.516Z,98857.53
2022-08-29T02:59:10.030Z,98855.93
2022-08-29T03:02:16.334Z,98857.02
2022-08-29T03:05:25.073Z,98860.01
2022-08-29T03:08:31.741Z,98861.83
2022-08-29T03:11:37.886Z,98863.05
2022-08-29T03:14:44.117Z,98864.55
2022-08-29T03:17:50.388Z,98865.41
2022-08-29T03:20:56.594Z,98865.89
2022-08-29T03:24:02.734Z,98868.20
2022-08-29T03:27:09.376Z,98867.92
2022-08-29T03:30:17.677Z,98870.92
2022-08-29T03:33:23.818Z,98875.39
2022-08-29T03:36:29.996Z,98885.77
2022-08-29T03:39:38.215Z,98887.63
2022-08-29T03:42:44.632Z,98897.98
2022-08-29T03:45:51.005Z,98902.92
2022-08-29T03:48:57.205Z,98907.95
2022-08-29T03:52:04.009Z,98912.08
2022-08-29T03:55:11.693Z,98913.02
2022-08-29T03:58:17.735Z,98917.30
2022-08-29T04:01:26.985Z,98918.21
2022-08-29T04:04:50.487Z,98922.55
2022-08-29T04:07:58.642Z,98925.76
2022-08-29T04:11:09.815Z,98927.42
2022-08-29T04:14:16.023Z,98924.86
2022-08-29T04:17:22.183Z,98927.21
2022-08-29T04:20:30.589Z,98927.94
2022-08-29T04:23:38.844Z,98931.37
2022-08-29T04:26:45.154Z,98934.04
2022-08-29T04:29:51.251Z,98934.58
2022-08-29T04:32:57.618Z,98936.88
2022-08-29T04:36:06.658Z,98940.92
2022-08-29T04:39:13.328Z,98946.42
2022-08-29T04:42:20.418Z,98950.17
2022-08-29T04:45:27.034Z,98953.79
2022-08-29T04:48:33.262Z,98955.42
2022-08-29T04:51:39.526Z,98959.09
2022-08-29T04:54:45.614Z,98958.50
2022-08-29T04:57:53.426Z,98962.30
2022-08-29T05:00:59.885Z,98966.71
2022-08-29T05:04:07.341Z,98972.34
2022-08-29T05:07:15.514Z,98978.33
2022-08-29T05:10:23.259Z,98977.63
2022-08-29T05:13:29.636Z,98983.08
2022-08-29T05:16:37.445Z,98982.85
2022-08-29T05:19:45.057Z,98986.73
2022-08-29T05:22:51.642Z,98994.50
2022-08-29T05:26:00.694Z,98993.17
2022-08-29T05:29:08.548Z,98991.02
2022-08-29T05:32:17.638Z,98992.65
2022-08-29T05:35:24.353Z,98991.95
2022-08-29T05:38:30.570Z,98995.95
2022-08-29T05:41:38.612Z,99001.15
2022-08-29T05:44:45.086Z,99000.13
2022-08-29T05:47:51.529Z,99000.82
2022-08-29T05:50:57.929Z,99002.06
2022-08-29T05:54:04.039Z,99001.63
2022-08-29T05:57:14.186Z,99001.48
2022-08-29T06:00:24.101Z,99003.43
2022-08-29T06:03:30.654Z,99004.58
2022-08-29T06:06:36.986Z,99006.39
2022-08-29T06:09:44.571Z,99012.73
2022-08-29T06:12:50.837Z,99016.45
2022-08-29T06:15:57.514Z,99022.66
2022-08-29T06:19:03.739Z,99023.21
2022-08-29T06:22:11.754Z,99028.66
2022-08-29T06:25:37.972Z,99029.70
2022-08-29T06:28:46.494Z,99029.38
2022-08-29T06:31:52.699Z,99033.05
2022-08-29T06:34:59.014Z,99035.99
2022-08-29T06:38:05.246Z,99043.17
2022-08-29T06:41:14.451Z,99045.69
2022-08-29T06:44:21.559Z,99048.65
2022-08-29T06:47:27.678Z,99054.89
2022-08-29T06:50:33.850Z,99061.75
2022-08-29T06:53:41.395Z,99065.02
2022-08-29T06:56:48.195Z,99071.29
2022-08-29T06:59:54.601Z,99074.25
2022-08-29T07:03:01.069Z,99076.56
2022-08-29T07:06:07.558Z,99079.45
2022-08-29T07:09:14.816Z,99080.22
2022-08-29T07:12:21.041Z,99082.74
2022-08-29T07:15:33.103Z,99086.63
2022-08-29T07:18:39.252Z,99090.90
2022-08-29T07:21:45.367Z,99095.95
2022-08-29T07:24:51.557Z,99093.64
2022-08-29T07:27:57.717Z,99094.88
2022-08-29T07:31:03.947Z,99098.04
2022-08-29T07:34:10.222Z,99101.85
2022-08-29T07:37:16.371Z,99100.32
2022-08-29T07:40:23.058Z,99104.56
2022-08-29T07:43:29.646Z,99106.45
2022-08-29T07:46:35.919Z,99106.08
2022-08-29T07:49:42.209Z,99107.58
2022-08-29T07:52:48.726Z,99108.23
2022-08-29T07:55:54.885Z,99111.39
2022-08-29T07:59:02.075Z,99117.37
2022-08-29T08:02:08.374Z,99125.27
2022-08-29T08:05:14.734Z,99133.26
2022-08-29T08:08:21.141Z,99136.59
2022-08-29T08:11:28.433Z,99140.77
2022-08-29T08:14:35.378Z,99142.95
2022-08-29T08:17:44.104Z,99143.63
2022-08-29T08:20:50.661Z,99146.21
2022-08-29T08:23:57.118Z,99147.73
2022-08-29T08:27:03.592Z,99143.69
2022-08-29T08:30:11.856Z,99145.57
2022-08-29T08:33:17.907Z,99145.02
2022-08-29T08:36:26.874Z,99143.75
2022-08-29T08:39:33.086Z,99147.27
2022-08-29T08:42:43.435Z,99147.95
2022-08-29T08:45:50.056Z,99147.46
2022-08-29T08:48:58.424Z,99148.73
2022-08-29T08:52:07.875Z,99154.20
2022-08-29T08:55:24.051Z,99153.71
2022-08-29T08:58:35.637Z,99151.16
2022-08-29T09:01:45.433Z,99151.14
2022-08-29T09:05:01.394Z,99155.70
2022-08-29T09:08:15.270Z,99151.71
2022-08-29T09:11:30.142Z,99154.21
2022-08-29T09:14:59.988Z,99144.76
2022-08-29T09:18:13.536Z,99146.63
2022-08-29T09:21:40.634Z,99146.02
2022-08-29T09:24:51.239Z,99144.76
2022-08-29T09:27:58.339Z,99142.81
2022-08-29T09:31:26.519Z,99142.94
2022-08-29T09:35:04.856Z,99147.61
2022-08-29T09:38:08.083Z,99146.12
2022-08-29T09:41:28.221Z,99147.73
2022-08-29T09:44:38.734Z,99154.15
2022-08-29T09:47:45.469Z,99156.14
2022-08-29T09:50:51.643Z,99155.01
2022-08-29T09:54:15.169Z,99155.20
2022-08-29T09:57:27.670Z,99152.23
2022-08-29T10:00:38.174Z,99155.49
2022-08-29T10:03:55.253Z,99157.40
2022-08-29T10:07:12.122Z,99159.09
2022-08-29T10:10:21.827Z,99153.27
2022-08-29T10:13:34.307Z,99152.25
2022-08-29T10:16:52.986Z,99149.45
2022-08-29T10:19:59.819Z,99148.80
2022-08-29T10:23:10.940Z,99144.19
2022-08-29T10:26:27.653Z,99143.52
2022-08-29T10:29:58.229Z,99139.30
2022-08-29T10:33:21.403Z,99137.41
2022-08-29T10:36:33.966Z,99138.08
2022-08-29T10:39:47.443Z,99138.93
2022-08-29T10:42:59.585Z,99135.58
2022-08-29T10:46:18.957Z,99133.33
2022-08-29T10:49:35.804Z,99127.84
2022-08-29T10:52:53.370Z,99127.13
2022-08-29T10:56:06.665Z,99133.22
2022-08-29T10:59:21.564Z,99123.80
2022-08-29T11:02:32.436Z,99125.86
2022-08-29T11:05:44.512Z,99130.52
2022-08-29T11:08:57.694Z,99128.86
2022-08-29T11:12:17.359Z,99133.98
2022-08-29T11:15:28.531Z,99128.92
2022-08-29T11:18:41.124Z,99128.84
2022-08-29T11:21:52.770Z,99126.23
2022-08-29T11:25:09.389Z,99125.66
2022-08-29T11:28:23.803Z,99123.45
2022-08-29T11:31:50.082Z,99120.89
2022-08-29T11:35:10.003Z,99117.78
2022-08-29T11:38:40.643Z,99123.86
2022-08-29T11:41:50.048Z,99115.27
2022-08-29T11:44:59.774Z,99115.52
2022-08-29T11:48:21.983Z,99119.64
2022-08-29T11:51:36.165Z,99117.70
2022-08-29T11:55:28.681Z,99116.94
2022-08-29T11:58:50.487Z,99115.77
2022-08-29T12:02:02.241Z,99113.48
2022-08-29T12:05:11.025Z,99112.12
2022-08-29T12:08:36.833Z,99108.23
2022-08-29T12:12:21.431Z,99110.90
2022-08-29T12:15:59.744Z,99118.34
2022-08-29T12:19:06.160Z,99124.59
2022-08-29T12:22:22.243Z,99127.35
2022-08-29T12:29:22.151Z,99130.29
2022-08-29T12:32:44.344Z,99129.25
2022-08-29T12:36:12.657Z,99130.15
2022-08-29T12:39:33.261Z,99125.79
2022-08-29T12:42:49.563Z,99127.53
2022-08-29T12:45:59.111Z,99127.41
2022-08-29T12:49:16.379Z,99117.65
2022-08-29T12:52:29.585Z,99117.93
2022-08-29T12:55:40.853Z,99117.42
2022-08-29T12:58:55.711Z,99117.27
2022-08-29T13:02:03.099Z,99114.64
2022-08-29T13:05:26.904Z,99109.86
2022-08-29T13:08:38.269Z,99109.10
2022-08-29T13:11:44.406Z,99110.59
2022-08-29T13:14:56.394Z,99113.08
2022-08-29T13:18:03.234Z,99111.14
2022-08-29T13:21:14.894Z,99111.58
2022-08-29T13:24:22.180Z,99104.13
2022-08-29T13:27:28.413Z,99100.55
2022-08-29T13:30:34.538Z,99101.39
2022-08-29T13:34:01.119Z,99097.42
2022-08-29T13:37:28.657Z,99094.97
2022-08-29T13:40:44.101Z,99092.11
2022-08-29T13:43:51.584Z,99096.86
2022-08-29T13:47:01.508Z,99095.80
2022-08-29T13:50:11.534Z,99096.20
2022-08-29T13:53:17.895Z,99094.47
2022-08-29T13:56:32.284Z,99092.83
2022-08-29T13:59:40.035Z,99093.89
2022-08-29T14:02:46.354Z,99089.95
2022-08-29T14:05:56.655Z,99089.38
2022-08-29T14:09:03.290Z,99093.70
2022-08-29T14:12:11.093Z,99093.48
2022-08-29T14:15:18.923Z,99089.36
2022-08-29T14:18:25.055Z,99089.94
2022-08-29T14:21:31.230Z,99090.46
2022-08-29T14:24:37.831Z,99095.86
2022-08-29T14:27:44.792Z,99091.62
2022-08-29T14:30:51.846Z,99089.65
2022-08-29T14:33:58.118Z,99088.04
2022-08-29T14:37:04.955Z,99091.98
2022-08-29T14:40:12.340Z,99091.75
2022-08-29T14:43:18.617Z,99094.55
2022-08-29T14:46:24.642Z,99083.99
2022-08-29T14:49:30.794Z,99080.89
2022-08-29T14:52:37.255Z,99078.44
2022-08-29T14:55:44.059Z,99078.33
2022-08-29T14:58:50.259Z,99075.34
2022-08-29T15:01:56.521Z,99079.27
2022-08-29T15:05:02.740Z,99081.39
2022-08-29T15:08:10.462Z,99082.38
2022-08-29T15:11:21.791Z,99084.18
2022-08-29T15:14:27.935Z,99080.70
2022-08-29T15:17:34.319Z,99079.88
2022-08-29T15:20:43.746Z,99078.35
2022-08-29T15:23:52.570Z,99077.08
2022-08-29T15:26:59.520Z,99075.45
2022-08-29T15:30:06.473Z,99073.16
2022-08-29T15:33:12.605Z,99070.58
2022-08-29T15:36:18.787Z,99070.85
2022-08-29T15:39:25.578Z,99073.23
2022-08-29T15:42:34.296Z,99073.89
2022-08-29T15:45:40.565Z,99066.27
2022-08-29T15:48:47.662Z,99063.61
2022-08-29T15:51:54.161Z,99062.20
2022-08-29T15:55:00.361Z,99056.44
2022-08-29T15:58:06.503Z,99061.24
2022-08-29T16:01:12.834Z,99060.40
2022-08-29T16:04:21.647Z,99057.48
2022-08-29T16:07:29.038Z,99058.98
2022-08-29T16:10:36.511Z,99061.06
2022-08-29T16:13:42.685Z,99056.69
2022-08-29T16:16:49.503Z,99056.11
2022-08-29T16:19:55.662Z,99057.10
2022-08-29T16:23:02.411Z,99059.23
2022-08-29T16:26:08.773Z,99055.98
2022-08-29T16:29:14.981Z,99050.64
2022-08-29T16:32:27.162Z,99052.48
2022-08-29T16:35:33.253Z,99052.23
2022-08-29T16:38:40.306Z,99051.98
2022-08-29T16:41:47.161Z,99057.65
2022-08-29T16:44:53.487Z,99058.46
2022-08-29T16:47:59.925Z,99059.15
2022-08-29T16:51:06.214Z,99059.94
2022-08-29T16:54:12.872Z,99060.31
2022-08-29T16:57:18.910Z,99060.97
2022-08-29T17:00:25.526Z,99063.02
2022-08-29T17:03:31.716Z,99062.58
2022-08-29T17:06:38.738Z,99067.59
2022-08-29T17:09:43.705Z,99065.50
2022-08-29T17:12:48.660Z,99067.50
2022-08-29T17:15:53.570Z,99073.93
2022-08-29T17:19:00.079Z,99078.90
2022-08-29T17:22:08.293Z,99080.04
2022-08-29T17:25:14.623Z,99084.42
2022-08-29T17:28:21.260Z,99090.98
2022-08-29T17:31:27.427Z,99089.23
2022-08-29T17:34:33.646Z,99099.41
2022-08-29T17:37:40.378Z,99101.54
2022-08-29T17:40:46.719Z,99099.84
2022-08-29T17:43:54.321Z,99101.80
2022-08-29T17:47:00.402Z,99108.26
2022-08-29T17:50:07.832Z,99105.84
2022-08-29T17:53:14.287Z,99108.84
2022-08-29T17:56:22.553Z,99109.73
2022-08-29T17:59:33.901Z,99112.55
2022-08-29T18:02:40.385Z,99118.40
2022-08-29T18:05:46.667Z,99120.57
2022-08-29T18:08:52.846Z,99129.78
2022-08-29T18:11:59.654Z,99128.86
2022-08-29T18:15:07.450Z,99128.60
2022-08-29T18:18:13.722Z,99134.16
2022-08-29T18:21:20.222Z,99134.56
2022-08-29T18:24:26.439Z,99137.87
2022-08-29T18:27:33.552Z,99148.91
2022-08-29T18:30:39.950Z,99150.70
2022-08-29T18:34:00.226Z,99148.29
2022-08-29T18:37:07.551Z,99151.69
2022-08-29T18:40:14.802Z,99152.92
2022-08-29T18:43:21.578Z,99159.40
2022-08-29T18:46:27.939Z,99166.33
2022-08-29T18:49:51.628Z,99166.38
2022-08-29T18:52:57.979Z,99173.73
2022-08-29T18:56:05.341Z,99178.93
2022-08-29T18:59:12.334Z,99180.17
2022-08-29T19:02:18.548Z,99182.40
2022-08-29T19:05:26.441Z,99184.38
2022-08-29T19:08:32.526Z,99186.48
2022-08-29T19:11:38.686Z,99193.95
2022-08-29T19:15:00.870Z,99204.17
2022-08-29T19:18:08.913Z,99209.91
2022-08-29T19:21:15.246Z,99211.84
2022-08-29T19:24:21.519Z,99217.18
2022-08-29T19:27:42.697Z,99222.95
2022-08-29T19:30:50.832Z,99231.64
2022-08-29T19:33:57.249Z,99237.64
2022-08-29T19:37:05.406Z,99242.99
2022-08-29T19:40:18.279Z,99252.36
2022-08-29T19:43:25.506Z,99251.45
2022-08-29T19:46:32.498Z,99251.83
2022-08-29T19:49:43.412Z,99254.84
2022-08-29T19:52:52.195Z,99251.54
2022-08-29T19:55:58.914Z,99252.85
2022-08-29T19:59:06.856Z,99254.50
2022-08-29T20:02:13.838Z,99249.38
2022-08-29T20:05:20.582Z,99244.46
2022-08-29T20:08:29.246Z,99244.25
2022-08-29T20:11:43.945Z,99248.65
2022-08-29T20:14:52.746Z,99255.69
2022-08-29T20:17:59.843Z,99259.55
2022-08-29T20:21:06.342Z,99257.99
2022-08-29T20:24:15.582Z,99256.71
2022-08-29T20:27:22.810Z,99257.77
2022-08-29T20:30:31.734Z,99257.48
2022-08-29T20:33:41.296Z,99260.23
2022-08-29T20:37:05.405Z,99256.61
2022-08-29T20:40:13.626Z,99258.96
2022-08-29T20:43:20.627Z,99259.17
2022-08-29T20:46:28.550Z,99262.02
2022-08-29T20:49:35.546Z,99260.05
2022-08-29T20:52:41.714Z,99263.20
2022-08-29T20:55:47.898Z,99261.32
2022-08-29T20:58:54.026Z,99263.10
2022-08-29T21:02:00.897Z,99267.91
2022-08-29T21:05:25.773Z,99264.81
2022-08-29T21:08:33.932Z,99261.52
2022-08-29T21:11:40.163Z,99261.77
2022-08-29T21:14:46.875Z,99258.16
2022-08-29T21:17:53.081Z,99262.58
2022-08-29T21:20:59.249Z,99258.73
2022-08-29T21:24:07.308Z,99262.39
2022-08-29T21:27:13.449Z,99258.27
2022-08-29T21:30:19.987Z,99258.92
2022-08-29T21:33:26.295Z,99253.98
2022-08-29T21:36:32.531Z,99254.17
2022-08-29T21:39:38.679Z,99249.61
2022-08-29T21:42:44.842Z,99254.23
2022-08-29T21:45:51.606Z,99260.97
2022-08-29T21:49:01.061Z,99264.73
2022-08-29T21:52:07.495Z,99264.64
2022-08-29T21:55:14.086Z,99268.36
2022-08-29T21:58:20.639Z,99271.83
2022-08-29T22:01:30.070Z,99265.08
2022-08-29T22:04:36.243Z,99266.86
2022-08-29T22:07:43.060Z,99264.17
2022-08-29T22:10:49.550Z,99266.30
2022-08-29T22:13:56.911Z,99273.64
2022-08-29T22:17:03.592Z,99270.68
2022-08-29T22:20:08.974Z,99268.94
2022-08-29T22:23:19.848Z,99265.13
2022-08-29T22:26:26.911Z,99263.86
2022-08-29T22:29:33.624Z,99266.94
2022-08-29T22:32:40.059Z,99270.05
2022-08-29T22:35:46.796Z,99269.48
2022-08-29T22:38:55.400Z,99270.08
2022-08-29T22:42:03.100Z,99269.61
2022-08-29T22:45:12.158Z,99265.45
2022-08-29T22:48:19.514Z,99267.89
2022-08-29T22:51:27.839Z,99266.31
2022-08-29T22:54:36.970Z,99265.45
2022-08-29T22:57:45.479Z,99268.56
2022-08-29T23:00:51.642Z,99265.92
2022-08-29T23:03:59.305Z,99272.95
2022-08-29T23:07:05.758Z,99273.66
2022-08-29T23:10:14.264Z,99276.17
2022-08-29T23:13:20.479Z,99276.73
2022-08-29T23:16:27.706Z,99286.36
2022-08-29T23:19:34.127Z,99279.24
2022-08-29T23:22:42.951Z,99282.42
2022-08-29T23:25:49.442Z,99282.90
2022-08-29T23:28:56.190Z,99282.45
2022-08-29T23:32:02.222Z,99285.05
2022-08-29T23:35:07.691Z,99285.80
2022-08-29T23:38:13.853Z,99286.65
2022-08-29T23:41:22.145Z,99284.83
2022-08-29T23:44:28.342Z,99283.67
2022-08-29T23:47:35.439Z,99281.97
2022-08-29T23:50:41.655Z,99276.64
2022-08-29T23:53:53.599Z,99277.52
2022-08-29T23:56:59.999Z,99277.23
